Impacts METAR Board
IDs:

KSAN - San Diego Intl Arpt, CA, US

Updated at: 0000 UTC 17 Jul 2019
Potential Impact None Slight Moderate High
Time 16/12Z 16/13Z 16/14Z 16/15Z 16/16Z 16/17Z 16/18Z 16/19Z 16/20Z 16/21Z 16/22Z 16/23Z 17/00Z
Temp64 63 63 64 64 65 68 70 70 70 70 69 68
Dewpt64 63 62 62 62 62 61 62 61 61 62 62 62
Altim29.83 29.84 29.86 29.87 29.88 29.90 29.91 29.91 29.91 29.91 29.90 29.88 29.87
VIS1.5 1 1.5 4 5 8 8 10 10 10 10 10 10
CIG4 2 3 4 5 6 7 10 10 12 12 9 9
CoverBKNOVCOVCOVCOVCBKNBKNBKNBKNBKNBKNBKNBKN
FltCatLIFRLIFRLIFRLIFRIFRIFRIFRMVFRMVFRMVFRMVFRIFRIFR
WXBRBRBRBRBR----------------
WDir01901601901500190190200170200230220
WSpd0 5 4 3 6 6 7 9 9 11 8 7 7
WGst-- -- -- -- -- -- -- 17 19 21 17 -- --
Raw hourly METARs
KSAN 161151Z 00000KT 1 1/2SM BR BKN004 18/18 A2983 RMK AO2 SLP100 T01780178 10200 20178 55005
KSAN 161251Z 19005KT 1SM R09/4000VP6000FT BR OVC002 17/17 A2984 RMK AO2 SLP105 VIS W 1/2 T01720172
KSAN 161351Z 16004KT 1 1/2SM BR OVC003 17/17 A2986 RMK AO2 SLP110 VIS W 1 T01720167
KSAN 161458Z 19003KT 4SM BR OVC004 18/17 A2987 RMK AO2 T01780167
KSAN 161551Z 15006KT 5SM BR OVC005 18/17 A2988 RMK AO2 SLP118 CIG 004V006 T01780167
KSAN 161651Z VRB06KT 8SM BKN006 18/17 A2990 RMK AO2 SLP123 CIG 005V007 T01830167
KSAN 161751Z 19007KT 8SM BKN007 20/16 A2991 RMK AO2 SLP126 CIG 006V009 T02000161 10200 20172 52012
KSAN 161851Z 19009G17KT 10SM BKN010 21/17 A2991 RMK AO2 SLP127 T02110167
KSAN 161951Z 20009G19KT 130V230 10SM BKN010 21/16 A2991 RMK AO2 SLP128 T02110161
KSAN 162051Z 17011G21KT 10SM BKN012 21/16 A2991 RMK AO2 SLP127 T02110161 50001
KSAN 162151Z 20008G17KT 10SM BKN012 21/17 A2990 RMK AO2 SLP124 T02110167
KSAN 162302Z 23007KT 10SM BKN009 21/17 A2988 RMK AO2 T02060167
KSAN 162351Z 22007KT 10SM BKN009 20/17 A2987 RMK AO2 SLP115 T02000167 10217 20194 58012



Page loaded:  00:30 UTC  |   05:30 PM Pacific  |   06:30 PM Mountain  |   07:30 PM Central  |   08:30 PM Eastern

 

ADVISORIES

FORECASTS

FORECASTS

OBSERVATIONS

USER TOOLS

ABOUT US